sensor_id;sensor_type;location;lat;lon;timestamp;P1;durP1;ratioP1;P2;durP2;ratioP2
20154;SDS011;10238;49.556;10.956;2023-08-17T00:00:37;7.53;;;5.50;;
20154;SDS011;10238;49.556;10.956;2023-08-17T00:03:24;5.28;;;4.65;;
20154;SDS011;10238;49.556;10.956;2023-08-17T00:06:12;6.45;;;5.00;;
20154;SDS011;10238;49.556;10.956;2023-08-17T00:09:01;5.43;;;4.93;;
20154;SDS011;10238;49.556;10.956;2023-08-17T00:11:49;4.95;;;4.53;;
20154;SDS011;10238;49.556;10.956;2023-08-17T00:14:38;5.10;;;4.60;;
20154;SDS011;10238;49.556;10.956;2023-08-17T00:17:26;6.40;;;5.00;;
20154;SDS011;10238;49.556;10.956;2023-08-17T00:20:15;5.38;;;4.88;;
20154;SDS011;10238;49.556;10.956;2023-08-17T00:23:03;4.80;;;4.30;;
20154;SDS011;10238;49.556;10.956;2023-08-17T00:25:51;10.57;;;5.70;;
20154;SDS011;10238;49.556;10.956;2023-08-17T00:28:38;6.20;;;5.07;;
20154;SDS011;10238;49.556;10.956;2023-08-17T00:31:27;8.68;;;5.30;;
20154;SDS011;10238;49.556;10.956;2023-08-17T00:34:15;9.23;;;5.35;;
20154;SDS011;10238;49.556;10.956;2023-08-17T00:37:03;7.13;;;5.22;;
20154;SDS011;10238;49.556;10.956;2023-08-17T00:39:51;5.55;;;5.05;;
20154;SDS011;10238;49.556;10.956;2023-08-17T00:42:39;8.90;;;5.53;;
20154;SDS011;10238;49.556;10.956;2023-08-17T00:45:26;5.95;;;5.35;;
20154;SDS011;10238;49.556;10.956;2023-08-17T00:48:16;7.95;;;6.18;;
20154;SDS011;10238;49.556;10.956;2023-08-17T00:51:04;6.57;;;5.05;;
20154;SDS011;10238;49.556;10.956;2023-08-17T00:53:53;5.55;;;5.05;;
20154;SDS011;10238;49.556;10.956;2023-08-17T00:56:45;6.72;;;5.18;;
20154;SDS011;10238;49.556;10.956;2023-08-17T00:59:33;9.13;;;5.60;;
20154;SDS011;10238;49.556;10.956;2023-08-17T01:02:21;5.85;;;5.10;;
20154;SDS011;10238;49.556;10.956;2023-08-17T01:05:11;7.13;;;5.55;;
20154;SDS011;10238;49.556;10.956;2023-08-17T01:08:00;6.07;;;5.47;;
20154;SDS011;10238;49.556;10.956;2023-08-17T01:11:01;5.95;;;5.32;;
20154;SDS011;10238;49.556;10.956;2023-08-17T01:14:02;6.00;;;5.40;;
20154;SDS011;10238;49.556;10.956;2023-08-17T01:16:59;5.63;;;5.05;;
20154;SDS011;10238;49.556;10.956;2023-08-17T01:19:53;6.95;;;5.25;;
20154;SDS011;10238;49.556;10.956;2023-08-17T01:22:45;8.13;;;5.35;;
20154;SDS011;10238;49.556;10.956;2023-08-17T01:25:37;6.82;;;5.53;;
20154;SDS011;10238;49.556;10.956;2023-08-17T01:28:25;5.85;;;5.25;;
20154;SDS011;10238;49.556;10.956;2023-08-17T01:31:14;6.57;;;5.60;;
20154;SDS011;10238;49.556;10.956;2023-08-17T01:34:10;7.93;;;5.60;;
20154;SDS011;10238;49.556;10.956;2023-08-17T01:37:06;6.35;;;5.60;;
20154;SDS011;10238;49.556;10.956;2023-08-17T01:39:58;5.93;;;5.40;;
20154;SDS011;10238;49.556;10.956;2023-08-17T01:42:48;6.47;;;5.40;;
20154;SDS011;10238;49.556;10.956;2023-08-17T01:45:37;7.20;;;5.53;;
20154;SDS011;10238;49.556;10.956;2023-08-17T01:48:24;8.02;;;5.57;;
20154;SDS011;10238;49.556;10.956;2023-08-17T01:51:15;6.18;;;5.53;;
20154;SDS011;10238;49.556;10.956;2023-08-17T01:54:06;7.45;;;5.88;;
20154;SDS011;10238;49.556;10.956;2023-08-17T01:56:55;7.00;;;5.60;;
20154;SDS011;10238;49.556;10.956;2023-08-17T01:59:44;6.85;;;6.10;;
20154;SDS011;10238;49.556;10.956;2023-08-17T02:02:32;7.30;;;5.60;;
20154;SDS011;10238;49.556;10.956;2023-08-17T02:05:19;6.07;;;5.47;;
20154;SDS011;10238;49.556;10.956;2023-08-17T02:08:07;6.93;;;5.40;;
20154;SDS011;10238;49.556;10.956;2023-08-17T02:10:55;6.90;;;5.57;;
20154;SDS011;10238;49.556;10.956;2023-08-17T02:13:42;6.80;;;5.28;;
20154;SDS011;10238;49.556;10.956;2023-08-17T02:16:31;9.00;;;5.85;;
20154;SDS011;10238;49.556;10.956;2023-08-17T02:19:21;6.53;;;5.90;;
20154;SDS011;10238;49.556;10.956;2023-08-17T02:22:09;5.90;;;5.40;;
20154;SDS011;10238;49.556;10.956;2023-08-17T02:24:57;6.32;;;5.72;;
20154;SDS011;10238;49.556;10.956;2023-08-17T02:27:44;9.18;;;5.75;;
20154;SDS011;10238;49.556;10.956;2023-08-17T02:30:33;5.85;;;5.20;;
20154;SDS011;10238;49.556;10.956;2023-08-17T02:33:23;10.23;;;6.00;;
20154;SDS011;10238;49.556;10.956;2023-08-17T02:36:11;6.70;;;5.70;;
20154;SDS011;10238;49.556;10.956;2023-08-17T02:38:58;6.65;;;5.25;;
20154;SDS011;10238;49.556;10.956;2023-08-17T02:41:46;5.88;;;5.30;;
20154;SDS011;10238;49.556;10.956;2023-08-17T02:44:35;8.65;;;5.63;;
20154;SDS011;10238;49.556;10.956;2023-08-17T02:47:22;7.53;;;5.70;;
20154;SDS011;10238;49.556;10.956;2023-08-17T02:50:12;8.57;;;5.35;;
20154;SDS011;10238;49.556;10.956;2023-08-17T02:52:59;7.75;;;5.93;;
20154;SDS011;10238;49.556;10.956;2023-08-17T02:55:48;6.30;;;5.70;;
20154;SDS011;10238;49.556;10.956;2023-08-17T02:58:36;6.53;;;5.50;;
20154;SDS011;10238;49.556;10.956;2023-08-17T03:01:24;5.90;;;5.32;;
20154;SDS011;10238;49.556;10.956;2023-08-17T03:04:11;8.00;;;5.82;;
20154;SDS011;10238;49.556;10.956;2023-08-17T03:07:00;9.30;;;6.43;;
20154;SDS011;10238;49.556;10.956;2023-08-17T03:09:50;9.02;;;5.50;;
20154;SDS011;10238;49.556;10.956;2023-08-17T03:12:38;6.28;;;5.63;;
20154;SDS011;10238;49.556;10.956;2023-08-17T03:15:26;9.50;;;5.57;;
20154;SDS011;10238;49.556;10.956;2023-08-17T03:18:14;6.15;;;5.55;;
20154;SDS011;10238;49.556;10.956;2023-08-17T03:21:02;6.88;;;5.45;;
20154;SDS011;10238;49.556;10.956;2023-08-17T03:23:51;6.63;;;5.95;;
20154;SDS011;10238;49.556;10.956;2023-08-17T03:26:39;6.47;;;5.63;;
20154;SDS011;10238;49.556;10.956;2023-08-17T03:29:27;5.68;;;5.15;;
20154;SDS011;10238;49.556;10.956;2023-08-17T03:32:15;8.27;;;5.68;;
20154;SDS011;10238;49.556;10.956;2023-08-17T03:35:03;7.20;;;5.45;;
20154;SDS011;10238;49.556;10.956;2023-08-17T03:37:52;6.07;;;5.50;;
20154;SDS011;10238;49.556;10.956;2023-08-17T03:40:41;9.90;;;6.18;;
20154;SDS011;10238;49.556;10.956;2023-08-17T03:43:28;7.13;;;5.78;;
20154;SDS011;10238;49.556;10.956;2023-08-17T03:46:16;7.85;;;6.18;;
20154;SDS011;10238;49.556;10.956;2023-08-17T03:49:04;6.97;;;5.82;;
20154;SDS011;10238;49.556;10.956;2023-08-17T03:51:51;6.47;;;5.60;;
20154;SDS011;10238;49.556;10.956;2023-08-17T03:54:39;8.65;;;5.90;;
20154;SDS011;10238;49.556;10.956;2023-08-17T03:57:28;8.77;;;5.93;;
20154;SDS011;10238;49.556;10.956;2023-08-17T04:00:18;10.05;;;6.07;;
20154;SDS011;10238;49.556;10.956;2023-08-17T04:03:06;6.47;;;5.88;;
20154;SDS011;10238;49.556;10.956;2023-08-17T04:05:54;9.85;;;6.30;;
20154;SDS011;10238;49.556;10.956;2023-08-17T04:08:41;6.57;;;5.88;;
20154;SDS011;10238;49.556;10.956;2023-08-17T04:11:29;6.93;;;6.22;;
20154;SDS011;10238;49.556;10.956;2023-08-17T04:14:18;9.98;;;6.20;;
20154;SDS011;10238;49.556;10.956;2023-08-17T04:17:06;7.22;;;5.68;;
20154;SDS011;10238;49.556;10.956;2023-08-17T04:19:54;7.40;;;6.10;;
20154;SDS011;10238;49.556;10.956;2023-08-17T04:22:41;7.97;;;6.57;;
20154;SDS011;10238;49.556;10.956;2023-08-17T04:25:30;6.43;;;5.88;;
20154;SDS011;10238;49.556;10.956;2023-08-17T04:28:18;7.45;;;6.22;;
20154;SDS011;10238;49.556;10.956;2023-08-17T04:31:08;7.18;;;6.45;;
20154;SDS011;10238;49.556;10.956;2023-08-17T04:33:57;6.97;;;6.25;;
20154;SDS011;10238;49.556;10.956;2023-08-17T04:36:45;7.55;;;6.07;;
20154;SDS011;10238;49.556;10.956;2023-08-17T04:39:33;8.02;;;7.22;;
20154;SDS011;10238;49.556;10.956;2023-08-17T04:42:22;7.35;;;6.20;;
20154;SDS011;10238;49.556;10.956;2023-08-17T04:45:12;9.18;;;6.88;;
20154;SDS011;10238;49.556;10.956;2023-08-17T04:48:01;6.93;;;5.90;;
20154;SDS011;10238;49.556;10.956;2023-08-17T04:53:40;6.68;;;5.82;;
20154;SDS011;10238;49.556;10.956;2023-08-17T04:56:30;9.43;;;6.07;;
20154;SDS011;10238;49.556;10.956;2023-08-17T04:59:18;9.10;;;6.85;;
20154;SDS011;10238;49.556;10.956;2023-08-17T05:02:05;7.68;;;6.45;;
20154;SDS011;10238;49.556;10.956;2023-08-17T05:04:55;9.48;;;6.15;;
20154;SDS011;10238;49.556;10.956;2023-08-17T05:07:45;6.28;;;5.68;;
20154;SDS011;10238;49.556;10.956;2023-08-17T05:10:34;9.60;;;6.03;;
20154;SDS011;10238;49.556;10.956;2023-08-17T05:13:21;8.73;;;6.47;;
20154;SDS011;10238;49.556;10.956;2023-08-17T05:16:09;7.22;;;6.55;;
20154;SDS011;10238;49.556;10.956;2023-08-17T05:18:57;7.45;;;6.30;;
20154;SDS011;10238;49.556;10.956;2023-08-17T05:21:48;8.23;;;7.15;;
20154;SDS011;10238;49.556;10.956;2023-08-17T05:24:38;8.18;;;6.60;;
20154;SDS011;10238;49.556;10.956;2023-08-17T05:27:26;7.45;;;6.55;;
20154;SDS011;10238;49.556;10.956;2023-08-17T05:30:14;9.23;;;6.03;;
20154;SDS011;10238;49.556;10.956;2023-08-17T05:33:02;8.65;;;6.75;;
20154;SDS011;10238;49.556;10.956;2023-08-17T05:35:53;8.10;;;7.30;;
20154;SDS011;10238;49.556;10.956;2023-08-17T05:38:42;11.15;;;8.15;;
20154;SDS011;10238;49.556;10.956;2023-08-17T05:41:30;9.90;;;7.10;;
20154;SDS011;10238;49.556;10.956;2023-08-17T05:44:18;9.65;;;7.25;;
20154;SDS011;10238;49.556;10.956;2023-08-17T05:47:05;6.88;;;6.07;;
20154;SDS011;10238;49.556;10.956;2023-08-17T05:49:53;8.75;;;7.13;;
20154;SDS011;10238;49.556;10.956;2023-08-17T05:52:40;9.00;;;7.38;;
20154;SDS011;10238;49.556;10.956;2023-08-17T05:55:29;8.10;;;6.93;;
20154;SDS011;10238;49.556;10.956;2023-08-17T05:58:17;12.18;;;8.10;;
20154;SDS011;10238;49.556;10.956;2023-08-17T06:01:05;10.25;;;6.65;;
20154;SDS011;10238;49.556;10.956;2023-08-17T06:03:55;15.45;;;8.20;;
20154;SDS011;10238;49.556;10.956;2023-08-17T06:06:42;9.65;;;7.78;;
20154;SDS011;10238;49.556;10.956;2023-08-17T06:09:30;12.35;;;8.57;;
20154;SDS011;10238;49.556;10.956;2023-08-17T06:12:19;11.57;;;7.13;;
20154;SDS011;10238;49.556;10.956;2023-08-17T06:15:07;9.23;;;7.38;;
20154;SDS011;10238;49.556;10.956;2023-08-17T06:17:55;9.98;;;7.15;;
20154;SDS011;10238;49.556;10.956;2023-08-17T06:20:44;10.02;;;8.27;;
20154;SDS011;10238;49.556;10.956;2023-08-17T06:23:34;12.23;;;7.78;;
20154;SDS011;10238;49.556;10.956;2023-08-17T06:26:21;12.85;;;7.57;;
20154;SDS011;10238;49.556;10.956;2023-08-17T06:29:11;8.32;;;7.40;;
20154;SDS011;10238;49.556;10.956;2023-08-17T06:31:59;9.70;;;7.72;;
20154;SDS011;10238;49.556;10.956;2023-08-17T06:34:46;9.80;;;7.85;;
20154;SDS011;10238;49.556;10.956;2023-08-17T06:37:35;11.02;;;8.35;;
20154;SDS011;10238;49.556;10.956;2023-08-17T06:40:23;11.20;;;8.35;;
20154;SDS011;10238;49.556;10.956;2023-08-17T06:43:11;13.32;;;10.07;;
20154;SDS011;10238;49.556;10.956;2023-08-17T06:46:03;10.68;;;8.38;;
20154;SDS011;10238;49.556;10.956;2023-08-17T06:48:50;12.85;;;8.25;;
20154;SDS011;10238;49.556;10.956;2023-08-17T06:51:39;10.27;;;8.90;;
20154;SDS011;10238;49.556;10.956;2023-08-17T06:54:27;9.00;;;8.10;;
20154;SDS011;10238;49.556;10.956;2023-08-17T06:57:15;9.57;;;8.10;;
20154;SDS011;10238;49.556;10.956;2023-08-17T07:00:04;10.45;;;8.48;;
20154;SDS011;10238;49.556;10.956;2023-08-17T07:02:55;9.75;;;8.70;;
20154;SDS011;10238;49.556;10.956;2023-08-17T07:05:46;9.43;;;8.43;;
20154;SDS011;10238;49.556;10.956;2023-08-17T07:08:33;10.40;;;9.43;;
20154;SDS011;10238;49.556;10.956;2023-08-17T07:11:21;9.57;;;8.65;;
20154;SDS011;10238;49.556;10.956;2023-08-17T07:14:10;11.02;;;9.82;;
20154;SDS011;10238;49.556;10.956;2023-08-17T07:16:58;10.38;;;9.32;;
20154;SDS011;10238;49.556;10.956;2023-08-17T07:19:47;10.40;;;9.40;;
20154;SDS011;10238;49.556;10.956;2023-08-17T07:22:55;9.23;;;8.32;;
20154;SDS011;10238;49.556;10.956;2023-08-17T07:25:43;11.30;;;8.50;;
20154;SDS011;10238;49.556;10.956;2023-08-17T07:28:33;9.95;;;8.10;;
20154;SDS011;10238;49.556;10.956;2023-08-17T07:31:22;15.10;;;8.32;;
20154;SDS011;10238;49.556;10.956;2023-08-17T07:34:11;8.35;;;7.50;;
20154;SDS011;10238;49.556;10.956;2023-08-17T07:37:01;9.63;;;8.43;;
20154;SDS011;10238;49.556;10.956;2023-08-17T07:39:51;11.05;;;8.27;;
20154;SDS011;10238;49.556;10.956;2023-08-17T07:42:39;10.88;;;8.98;;
20154;SDS011;10238;49.556;10.956;2023-08-17T07:45:27;11.10;;;7.82;;
20154;SDS011;10238;49.556;10.956;2023-08-17T07:48:15;11.32;;;7.68;;
20154;SDS011;10238;49.556;10.956;2023-08-17T07:51:03;9.52;;;7.53;;
20154;SDS011;10238;49.556;10.956;2023-08-17T07:53:52;10.75;;;8.25;;
20154;SDS011;10238;49.556;10.956;2023-08-17T07:56:40;9.93;;;7.50;;
20154;SDS011;10238;49.556;10.956;2023-08-17T07:59:29;8.30;;;7.28;;
20154;SDS011;10238;49.556;10.956;2023-08-17T08:02:17;8.63;;;7.82;;
20154;SDS011;10238;49.556;10.956;2023-08-17T08:05:05;10.30;;;7.93;;
20154;SDS011;10238;49.556;10.956;2023-08-17T08:07:54;10.60;;;7.93;;
20154;SDS011;10238;49.556;10.956;2023-08-17T08:10:44;8.93;;;8.02;;
20154;SDS011;10238;49.556;10.956;2023-08-17T08:13:32;8.93;;;7.85;;
20154;SDS011;10238;49.556;10.956;2023-08-17T08:19:16;7.87;;;7.17;;
20154;SDS011;10238;49.556;10.956;2023-08-17T08:22:04;11.93;;;8.02;;
20154;SDS011;10238;49.556;10.956;2023-08-17T08:24:52;7.70;;;7.00;;
20154;SDS011;10238;49.556;10.956;2023-08-17T08:27:41;11.30;;;7.60;;
20154;SDS011;10238;49.556;10.956;2023-08-17T08:30:29;11.20;;;7.75;;
20154;SDS011;10238;49.556;10.956;2023-08-17T08:33:17;9.90;;;8.02;;
20154;SDS011;10238;49.556;10.956;2023-08-17T08:36:05;9.18;;;7.78;;
20154;SDS011;10238;49.556;10.956;2023-08-17T08:38:52;9.73;;;8.02;;
20154;SDS011;10238;49.556;10.956;2023-08-17T08:41:40;9.05;;;7.70;;
20154;SDS011;10238;49.556;10.956;2023-08-17T08:44:29;11.48;;;8.05;;
20154;SDS011;10238;49.556;10.956;2023-08-17T08:47:17;10.65;;;7.20;;
20154;SDS011;10238;49.556;10.956;2023-08-17T08:50:05;10.85;;;8.63;;
20154;SDS011;10238;49.556;10.956;2023-08-17T08:52:57;9.48;;;8.48;;
20154;SDS011;10238;49.556;10.956;2023-08-17T08:55:50;12.00;;;8.27;;
20154;SDS011;10238;49.556;10.956;2023-08-17T08:58:42;10.40;;;8.63;;
20154;SDS011;10238;49.556;10.956;2023-08-17T09:01:33;9.32;;;8.40;;
20154;SDS011;10238;49.556;10.956;2023-08-17T09:04:22;11.60;;;7.85;;
20154;SDS011;10238;49.556;10.956;2023-08-17T09:07:10;9.57;;;7.97;;
20154;SDS011;10238;49.556;10.956;2023-08-17T09:10:00;10.27;;;7.75;;
20154;SDS011;10238;49.556;10.956;2023-08-17T09:12:50;9.90;;;7.75;;
20154;SDS011;10238;49.556;10.956;2023-08-17T09:15:38;11.65;;;8.73;;
20154;SDS011;10238;49.556;10.956;2023-08-17T09:18:27;9.88;;;8.57;;
20154;SDS011;10238;49.556;10.956;2023-08-17T09:21:21;20.58;;;8.13;;
20154;SDS011;10238;49.556;10.956;2023-08-17T09:24:10;11.68;;;7.82;;
20154;SDS011;10238;49.556;10.956;2023-08-17T09:26:59;15.88;;;8.27;;
20154;SDS011;10238;49.556;10.956;2023-08-17T09:29:47;8.90;;;7.72;;
20154;SDS011;10238;49.556;10.956;2023-08-17T09:32:34;8.90;;;7.53;;
20154;SDS011;10238;49.556;10.956;2023-08-17T09:35:24;8.35;;;7.22;;
20154;SDS011;10238;49.556;10.956;2023-08-17T09:38:12;8.70;;;7.90;;
20154;SDS011;10238;49.556;10.956;2023-08-17T09:41:00;8.85;;;8.05;;
20154;SDS011;10238;49.556;10.956;2023-08-17T09:43:48;9.27;;;7.63;;
20154;SDS011;10238;49.556;10.956;2023-08-17T09:46:36;9.52;;;7.20;;
20154;SDS011;10238;49.556;10.956;2023-08-17T09:49:24;8.10;;;7.20;;
20154;SDS011;10238;49.556;10.956;2023-08-17T09:52:13;10.32;;;7.68;;
20154;SDS011;10238;49.556;10.956;2023-08-17T09:55:01;8.80;;;7.90;;
20154;SDS011;10238;49.556;10.956;2023-08-17T09:57:53;8.35;;;7.13;;
20154;SDS011;10238;49.556;10.956;2023-08-17T10:00:43;9.00;;;8.10;;
20154;SDS011;10238;49.556;10.956;2023-08-17T10:03:36;8.05;;;7.30;;
20154;SDS011;10238;49.556;10.956;2023-08-17T10:06:31;8.65;;;7.85;;
20154;SDS011;10238;49.556;10.956;2023-08-17T10:09:24;8.57;;;7.45;;
20154;SDS011;10238;49.556;10.956;2023-08-17T10:12:17;8.52;;;7.28;;
20154;SDS011;10238;49.556;10.956;2023-08-17T10:15:07;10.07;;;7.93;;
20154;SDS011;10238;49.556;10.956;2023-08-17T10:18:07;9.18;;;8.27;;
20154;SDS011;10238;49.556;10.956;2023-08-17T10:21:06;11.23;;;7.53;;
20154;SDS011;10238;49.556;10.956;2023-08-17T10:24:00;8.57;;;7.57;;
20154;SDS011;10238;49.556;10.956;2023-08-17T10:26:53;8.02;;;7.35;;
20154;SDS011;10238;49.556;10.956;2023-08-17T10:29:42;9.32;;;7.78;;
20154;SDS011;10238;49.556;10.956;2023-08-17T10:32:31;9.52;;;8.38;;
20154;SDS011;10238;49.556;10.956;2023-08-17T10:35:20;8.32;;;7.35;;
20154;SDS011;10238;49.556;10.956;2023-08-17T10:38:09;8.38;;;7.68;;
20154;SDS011;10238;49.556;10.956;2023-08-17T10:41:07;9.60;;;8.68;;
20154;SDS011;10238;49.556;10.956;2023-08-17T10:44:04;8.73;;;7.90;;
20154;SDS011;10238;49.556;10.956;2023-08-17T10:46:53;8.45;;;7.65;;
20154;SDS011;10238;49.556;10.956;2023-08-17T10:49:41;8.85;;;7.93;;
20154;SDS011;10238;49.556;10.956;2023-08-17T10:52:31;9.07;;;8.18;;
20154;SDS011;10238;49.556;10.956;2023-08-17T10:55:34;8.38;;;7.50;;
20154;SDS011;10238;49.556;10.956;2023-08-17T10:58:24;9.73;;;8.00;;
20154;SDS011;10238;49.556;10.956;2023-08-17T11:01:13;10.60;;;7.97;;
20154;SDS011;10238;49.556;10.956;2023-08-17T11:04:17;9.10;;;7.80;;
20154;SDS011;10238;49.556;10.956;2023-08-17T11:07:05;9.20;;;8.32;;
20154;SDS011;10238;49.556;10.956;2023-08-17T11:10:05;12.45;;;8.30;;
20154;SDS011;10238;49.556;10.956;2023-08-17T11:12:59;9.23;;;8.35;;
20154;SDS011;10238;49.556;10.956;2023-08-17T11:15:47;8.10;;;7.30;;
20154;SDS011;10238;49.556;10.956;2023-08-17T11:18:37;8.25;;;7.45;;
20154;SDS011;10238;49.556;10.956;2023-08-17T11:24:14;9.93;;;7.20;;
20154;SDS011;10238;49.556;10.956;2023-08-17T11:27:02;9.32;;;7.80;;
20154;SDS011;10238;49.556;10.956;2023-08-17T11:29:51;9.02;;;8.23;;
20154;SDS011;10238;49.556;10.956;2023-08-17T11:32:40;8.82;;;7.93;;
20154;SDS011;10238;49.556;10.956;2023-08-17T11:35:29;8.70;;;7.88;;
20154;SDS011;10238;49.556;10.956;2023-08-17T11:38:17;7.97;;;7.35;;
20154;SDS011;10238;49.556;10.956;2023-08-17T11:41:05;10.18;;;8.32;;
20154;SDS011;10238;49.556;10.956;2023-08-17T11:43:54;9.48;;;7.88;;
20154;SDS011;10238;49.556;10.956;2023-08-17T11:46:42;8.25;;;7.53;;
20154;SDS011;10238;49.556;10.956;2023-08-17T11:49:30;8.73;;;7.80;;
20154;SDS011;10238;49.556;10.956;2023-08-17T11:52:25;8.10;;;7.38;;
20154;SDS011;10238;49.556;10.956;2023-08-17T11:55:15;8.40;;;7.68;;
20154;SDS011;10238;49.556;10.956;2023-08-17T11:58:06;9.02;;;7.68;;
20154;SDS011;10238;49.556;10.956;2023-08-17T12:00:55;8.48;;;7.55;;
20154;SDS011;10238;49.556;10.956;2023-08-17T12:03:43;8.43;;;7.68;;
20154;SDS011;10238;49.556;10.956;2023-08-17T12:06:31;8.18;;;7.38;;
20154;SDS011;10238;49.556;10.956;2023-08-17T12:09:21;8.63;;;7.40;;
20154;SDS011;10238;49.556;10.956;2023-08-17T12:12:09;9.93;;;7.63;;
20154;SDS011;10238;49.556;10.956;2023-08-17T12:14:57;10.38;;;7.80;;
20154;SDS011;10238;49.556;10.956;2023-08-17T12:17:45;8.40;;;7.30;;
20154;SDS011;10238;49.556;10.956;2023-08-17T12:20:35;8.25;;;7.43;;
20154;SDS011;10238;49.556;10.956;2023-08-17T12:23:29;9.15;;;8.20;;
20154;SDS011;10238;49.556;10.956;2023-08-17T12:26:20;9.05;;;8.18;;
20154;SDS011;10238;49.556;10.956;2023-08-17T12:29:09;9.40;;;7.57;;
20154;SDS011;10238;49.556;10.956;2023-08-17T12:31:56;10.95;;;8.20;;
20154;SDS011;10238;49.556;10.956;2023-08-17T12:34:45;8.88;;;7.97;;
20154;SDS011;10238;49.556;10.956;2023-08-17T12:37:34;9.30;;;8.40;;
20154;SDS011;10238;49.556;10.956;2023-08-17T12:40:22;8.35;;;7.53;;
20154;SDS011;10238;49.556;10.956;2023-08-17T12:43:12;9.73;;;7.10;;
20154;SDS011;10238;49.556;10.956;2023-08-17T12:46:00;7.45;;;6.72;;
20154;SDS011;10238;49.556;10.956;2023-08-17T12:48:48;8.57;;;7.65;;
20154;SDS011;10238;49.556;10.956;2023-08-17T12:51:36;8.52;;;7.72;;
20154;SDS011;10238;49.556;10.956;2023-08-17T12:54:31;8.60;;;7.28;;
20154;SDS011;10238;49.556;10.956;2023-08-17T12:57:19;8.45;;;7.72;;
20154;SDS011;10238;49.556;10.956;2023-08-17T13:00:09;8.32;;;7.53;;
20154;SDS011;10238;49.556;10.956;2023-08-17T13:05:46;9.32;;;7.63;;
20154;SDS011;10238;49.556;10.956;2023-08-17T13:08:34;8.55;;;6.95;;
20154;SDS011;10238;49.556;10.956;2023-08-17T13:11:21;8.88;;;8.07;;
20154;SDS011;10238;49.556;10.956;2023-08-17T13:14:12;8.40;;;7.53;;
20154;SDS011;10238;49.556;10.956;2023-08-17T13:17:03;11.47;;;7.77;;
20154;SDS011;10238;49.556;10.956;2023-08-17T13:19:51;8.57;;;7.35;;
20154;SDS011;10238;49.556;10.956;2023-08-17T13:22:39;8.32;;;7.20;;
20154;SDS011;10238;49.556;10.956;2023-08-17T13:25:28;8.80;;;7.05;;
20154;SDS011;10238;49.556;10.956;2023-08-17T13:28:16;7.30;;;6.70;;
20154;SDS011;10238;49.556;10.956;2023-08-17T13:31:03;6.97;;;6.38;;
20154;SDS011;10238;49.556;10.956;2023-08-17T13:34:10;7.38;;;6.68;;
20154;SDS011;10238;49.556;10.956;2023-08-17T13:36:58;7.05;;;6.47;;
20154;SDS011;10238;49.556;10.956;2023-08-17T13:39:48;7.27;;;6.67;;
20154;SDS011;10238;49.556;10.956;2023-08-17T13:42:36;7.32;;;6.65;;
20154;SDS011;10238;49.556;10.956;2023-08-17T13:45:24;6.72;;;6.18;;
20154;SDS011;10238;49.556;10.956;2023-08-17T13:48:11;8.20;;;6.85;;
20154;SDS011;10238;49.556;10.956;2023-08-17T13:51:00;9.07;;;7.07;;
20154;SDS011;10238;49.556;10.956;2023-08-17T13:53:48;8.77;;;7.18;;
20154;SDS011;10238;49.556;10.956;2023-08-17T13:56:36;7.30;;;6.60;;
20154;SDS011;10238;49.556;10.956;2023-08-17T13:59:23;9.07;;;6.95;;
20154;SDS011;10238;49.556;10.956;2023-08-17T14:02:11;7.93;;;7.22;;
20154;SDS011;10238;49.556;10.956;2023-08-17T14:04:59;7.93;;;7.22;;
20154;SDS011;10238;49.556;10.956;2023-08-17T14:07:49;8.07;;;7.28;;
20154;SDS011;10238;49.556;10.956;2023-08-17T14:10:36;9.68;;;6.90;;
20154;SDS011;10238;49.556;10.956;2023-08-17T14:13:25;6.63;;;6.07;;
20154;SDS011;10238;49.556;10.956;2023-08-17T14:16:13;7.47;;;6.57;;
20154;SDS011;10238;49.556;10.956;2023-08-17T14:19:01;7.18;;;6.47;;
20154;SDS011;10238;49.556;10.956;2023-08-17T14:21:49;7.47;;;6.72;;
20154;SDS011;10238;49.556;10.956;2023-08-17T14:24:38;7.47;;;6.78;;
20154;SDS011;10238;49.556;10.956;2023-08-17T14:27:28;7.07;;;6.47;;
20154;SDS011;10238;49.556;10.956;2023-08-17T14:30:26;7.97;;;6.13;;
20154;SDS011;10238;49.556;10.956;2023-08-17T14:34:11;6.47;;;5.93;;
20154;SDS011;10238;49.556;10.956;2023-08-17T14:38:01;6.85;;;6.28;;
20154;SDS011;10238;49.556;10.956;2023-08-17T14:41:45;9.20;;;6.63;;
20154;SDS011;10238;49.556;10.956;2023-08-17T14:45:46;6.80;;;6.22;;
20154;SDS011;10238;49.556;10.956;2023-08-17T14:48:34;8.15;;;6.32;;
20154;SDS011;10238;49.556;10.956;2023-08-17T14:51:23;10.07;;;6.75;;
20154;SDS011;10238;49.556;10.956;2023-08-17T14:54:15;8.10;;;6.65;;
20154;SDS011;10238;49.556;10.956;2023-08-17T14:57:05;7.07;;;6.38;;
20154;SDS011;10238;49.556;10.956;2023-08-17T14:59:53;7.95;;;6.30;;
20154;SDS011;10238;49.556;10.956;2023-08-17T15:02:41;9.00;;;7.38;;
20154;SDS011;10238;49.556;10.956;2023-08-17T15:05:29;11.15;;;7.63;;
20154;SDS011;10238;49.556;10.956;2023-08-17T15:08:21;11.02;;;7.03;;
20154;SDS011;10238;49.556;10.956;2023-08-17T15:11:09;8.23;;;7.20;;
20154;SDS011;10238;49.556;10.956;2023-08-17T15:13:58;9.02;;;7.55;;
20154;SDS011;10238;49.556;10.956;2023-08-17T15:16:46;8.57;;;7.68;;
20154;SDS011;10238;49.556;10.956;2023-08-17T15:19:33;8.98;;;7.85;;
20154;SDS011;10238;49.556;10.956;2023-08-17T15:22:26;8.30;;;7.38;;
20154;SDS011;10238;49.556;10.956;2023-08-17T15:25:14;7.95;;;7.15;;
20154;SDS011;10238;49.556;10.956;2023-08-17T15:28:02;8.32;;;7.53;;
20154;SDS011;10238;49.556;10.956;2023-08-17T15:30:59;8.13;;;7.22;;
20154;SDS011;10238;49.556;10.956;2023-08-17T15:33:50;8.25;;;7.53;;
20154;SDS011;10238;49.556;10.956;2023-08-17T15:36:38;11.50;;;8.25;;
20154;SDS011;10238;49.556;10.956;2023-08-17T15:39:26;9.07;;;8.07;;
20154;SDS011;10238;49.556;10.956;2023-08-17T15:42:14;10.55;;;8.20;;
20154;SDS011;10238;49.556;10.956;2023-08-17T15:45:02;9.88;;;8.40;;
20154;SDS011;10238;49.556;10.956;2023-08-17T15:47:56;8.60;;;7.68;;
20154;SDS011;10238;49.556;10.956;2023-08-17T15:50:44;7.50;;;6.60;;
20154;SDS011;10238;49.556;10.956;2023-08-17T15:53:32;6.93;;;5.70;;
20154;SDS011;10238;49.556;10.956;2023-08-17T15:56:25;6.30;;;4.78;;
20154;SDS011;10238;49.556;10.956;2023-08-17T15:59:13;6.80;;;5.38;;
20154;SDS011;10238;49.556;10.956;2023-08-17T16:02:00;6.32;;;5.53;;
20154;SDS011;10238;49.556;10.956;2023-08-17T16:04:49;6.00;;;5.13;;
20154;SDS011;10238;49.556;10.956;2023-08-17T16:07:37;9.10;;;4.97;;
20154;SDS011;10238;49.556;10.956;2023-08-17T16:10:25;7.45;;;4.82;;
20154;SDS011;10238;49.556;10.956;2023-08-17T16:13:20;6.82;;;5.88;;
20154;SDS011;10238;49.556;10.956;2023-08-17T16:16:07;9.90;;;5.75;;
20154;SDS011;10238;49.556;10.956;2023-08-17T16:18:55;11.27;;;5.65;;
20154;SDS011;10238;49.556;10.956;2023-08-17T16:21:50;9.82;;;5.80;;
20154;SDS011;10238;49.556;10.956;2023-08-17T16:24:39;8.73;;;6.72;;
20154;SDS011;10238;49.556;10.956;2023-08-17T16:27:27;7.57;;;6.15;;
20154;SDS011;10238;49.556;10.956;2023-08-17T16:30:15;8.32;;;5.72;;
20154;SDS011;10238;49.556;10.956;2023-08-17T16:33:03;7.45;;;5.70;;
20154;SDS011;10238;49.556;10.956;2023-08-17T16:35:51;7.80;;;5.82;;
20154;SDS011;10238;49.556;10.956;2023-08-17T16:38:40;8.57;;;6.07;;
20154;SDS011;10238;49.556;10.956;2023-08-17T16:41:28;16.02;;;8.30;;
20154;SDS011;10238;49.556;10.956;2023-08-17T16:44:16;16.92;;;7.18;;
20154;SDS011;10238;49.556;10.956;2023-08-17T16:47:06;13.73;;;8.88;;
20154;SDS011;10238;49.556;10.956;2023-08-17T16:49:54;14.02;;;7.05;;
20154;SDS011;10238;49.556;10.956;2023-08-17T16:52:44;7.57;;;6.60;;
20154;SDS011;10238;49.556;10.956;2023-08-17T16:55:33;9.15;;;6.38;;